sensor_id;sensor_type;location;lat;lon;timestamp;temperature;humidity
26691;DHT22;14307;51.718;8.938;2022-12-20T00:01:27;5.10;99.90
26691;DHT22;14307;51.718;8.938;2022-12-20T00:03:55;5.10;99.90
26691;DHT22;14307;51.718;8.938;2022-12-20T00:06:23;5.00;99.90
26691;DHT22;14307;51.718;8.938;2022-12-20T00:08:55;4.90;99.90
26691;DHT22;14307;51.718;8.938;2022-12-20T00:11:22;5.00;99.90
26691;DHT22;14307;51.718;8.938;2022-12-20T00:13:49;4.90;99.90
26691;DHT22;14307;51.718;8.938;2022-12-20T00:16:18;4.90;99.90
26691;DHT22;14307;51.718;8.938;2022-12-20T00:18:45;4.90;99.90
26691;DHT22;14307;51.718;8.938;2022-12-20T00:21:13;4.80;99.90
26691;DHT22;14307;51.718;8.938;2022-12-20T00:23:40;4.80;99.90
26691;DHT22;14307;51.718;8.938;2022-12-20T00:26:13;4.90;99.90
26691;DHT22;14307;51.718;8.938;2022-12-20T00:28:42;4.90;99.90
26691;DHT22;14307;51.718;8.938;2022-12-20T00:31:10;4.90;99.90
26691;DHT22;14307;51.718;8.938;2022-12-20T00:33:37;4.90;99.90
26691;DHT22;14307;51.718;8.938;2022-12-20T00:36:07;4.90;99.90
26691;DHT22;14307;51.718;8.938;2022-12-20T00:38:34;4.80;99.90
26691;DHT22;14307;51.718;8.938;2022-12-20T00:41:04;4.70;99.90
26691;DHT22;14307;51.718;8.938;2022-12-20T00:43:31;4.80;99.90
26691;DHT22;14307;51.718;8.938;2022-12-20T00:45:59;4.70;99.90
26691;DHT22;14307;51.718;8.938;2022-12-20T00:48:27;4.60;99.90
26691;DHT22;14307;51.718;8.938;2022-12-20T00:50:58;4.70;99.90
26691;DHT22;14307;51.718;8.938;2022-12-20T00:53:25;4.70;99.90
26691;DHT22;14307;51.718;8.938;2022-12-20T00:55:53;4.80;99.90
26691;DHT22;14307;51.718;8.938;2022-12-20T00:58:20;4.80;99.90
26691;DHT22;14307;51.718;8.938;2022-12-20T01:00:47;4.80;99.90
26691;DHT22;14307;51.718;8.938;2022-12-20T01:03:23;4.80;99.90
26691;DHT22;14307;51.718;8.938;2022-12-20T01:05:56;4.90;99.90
26691;DHT22;14307;51.718;8.938;2022-12-20T01:08:23;4.90;99.90
26691;DHT22;14307;51.718;8.938;2022-12-20T01:11:30;4.90;99.90
26691;DHT22;14307;51.718;8.938;2022-12-20T01:14:02;4.90;99.90
26691;DHT22;14307;51.718;8.938;2022-12-20T01:16:34;4.70;99.90
26691;DHT22;14307;51.718;8.938;2022-12-20T01:19:02;4.80;99.90
26691;DHT22;14307;51.718;8.938;2022-12-20T01:21:29;4.80;99.90
26691;DHT22;14307;51.718;8.938;2022-12-20T01:23:56;4.80;99.90
26691;DHT22;14307;51.718;8.938;2022-12-20T01:26:25;4.90;99.90
26691;DHT22;14307;51.718;8.938;2022-12-20T01:28:55;4.90;99.90
26691;DHT22;14307;51.718;8.938;2022-12-20T01:31:22;4.90;99.90
26691;DHT22;14307;51.718;8.938;2022-12-20T01:33:50;4.90;99.90
26691;DHT22;14307;51.718;8.938;2022-12-20T01:36:20;4.90;99.90
26691;DHT22;14307;51.718;8.938;2022-12-20T01:38:47;4.90;99.90
26691;DHT22;14307;51.718;8.938;2022-12-20T01:41:16;5.00;99.90
26691;DHT22;14307;51.718;8.938;2022-12-20T01:43:53;5.00;99.90
26691;DHT22;14307;51.718;8.938;2022-12-20T01:46:22;5.00;99.90
26691;DHT22;14307;51.718;8.938;2022-12-20T01:48:57;5.00;99.90
26691;DHT22;14307;51.718;8.938;2022-12-20T01:51:28;5.00;99.90
26691;DHT22;14307;51.718;8.938;2022-12-20T01:54:00;5.10;99.90
26691;DHT22;14307;51.718;8.938;2022-12-20T01:56:28;5.20;99.90
26691;DHT22;14307;51.718;8.938;2022-12-20T01:58:57;5.30;99.90
26691;DHT22;14307;51.718;8.938;2022-12-20T02:01:24;5.30;99.90
26691;DHT22;14307;51.718;8.938;2022-12-20T02:03:54;5.40;99.90
26691;DHT22;14307;51.718;8.938;2022-12-20T02:06:23;5.40;99.90
26691;DHT22;14307;51.718;8.938;2022-12-20T02:08:53;5.50;99.90
26691;DHT22;14307;51.718;8.938;2022-12-20T02:16:56;5.60;99.90
26691;DHT22;14307;51.718;8.938;2022-12-20T02:28:03;5.50;99.90
26691;DHT22;14307;51.718;8.938;2022-12-20T02:30:41;5.50;99.90
26691;DHT22;14307;51.718;8.938;2022-12-20T02:33:11;5.50;99.90
26691;DHT22;14307;51.718;8.938;2022-12-20T02:35:40;5.60;99.90
26691;DHT22;14307;51.718;8.938;2022-12-20T02:38:36;5.60;99.90
26691;DHT22;14307;51.718;8.938;2022-12-20T02:41:12;5.70;99.90
26691;DHT22;14307;51.718;8.938;2022-12-20T02:43:42;5.90;99.90
26691;DHT22;14307;51.718;8.938;2022-12-20T02:46:30;5.90;99.90
26691;DHT22;14307;51.718;8.938;2022-12-20T02:49:01;6.00;99.90
26691;DHT22;14307;51.718;8.938;2022-12-20T02:51:30;5.90;99.90
26691;DHT22;14307;51.718;8.938;2022-12-20T02:53:59;5.90;99.90
26691;DHT22;14307;51.718;8.938;2022-12-20T02:56:34;5.90;99.90
26691;DHT22;14307;51.718;8.938;2022-12-20T02:59:03;5.90;99.90
26691;DHT22;14307;51.718;8.938;2022-12-20T03:01:36;6.00;99.90
26691;DHT22;14307;51.718;8.938;2022-12-20T03:04:06;6.00;99.90
26691;DHT22;14307;51.718;8.938;2022-12-20T03:06:33;5.90;99.90
26691;DHT22;14307;51.718;8.938;2022-12-20T03:09:00;5.90;99.90
26691;DHT22;14307;51.718;8.938;2022-12-20T03:11:29;5.90;99.90
26691;DHT22;14307;51.718;8.938;2022-12-20T03:13:56;5.80;99.90
26691;DHT22;14307;51.718;8.938;2022-12-20T03:16:22;5.90;99.90
26691;DHT22;14307;51.718;8.938;2022-12-20T03:18:49;5.80;99.90
26691;DHT22;14307;51.718;8.938;2022-12-20T03:21:16;5.80;99.90
26691;DHT22;14307;51.718;8.938;2022-12-20T03:23:42;5.80;99.90
26691;DHT22;14307;51.718;8.938;2022-12-20T03:26:09;5.70;99.90
26691;DHT22;14307;51.718;8.938;2022-12-20T03:28:43;5.70;99.90
26691;DHT22;14307;51.718;8.938;2022-12-20T03:31:13;5.60;99.90
26691;DHT22;14307;51.718;8.938;2022-12-20T03:33:45;5.60;99.90
26691;DHT22;14307;51.718;8.938;2022-12-20T03:36:12;5.60;99.90
26691;DHT22;14307;51.718;8.938;2022-12-20T03:38:40;5.60;99.90
26691;DHT22;14307;51.718;8.938;2022-12-20T03:41:07;5.60;99.90
26691;DHT22;14307;51.718;8.938;2022-12-20T03:43:34;5.60;99.90
26691;DHT22;14307;51.718;8.938;2022-12-20T03:46:01;5.70;99.90
26691;DHT22;14307;51.718;8.938;2022-12-20T03:48:33;5.60;99.90
26691;DHT22;14307;51.718;8.938;2022-12-20T03:50:59;5.60;99.90
26691;DHT22;14307;51.718;8.938;2022-12-20T03:53:26;5.60;99.90
26691;DHT22;14307;51.718;8.938;2022-12-20T03:55:53;5.70;99.90
26691;DHT22;14307;51.718;8.938;2022-12-20T04:00:59;5.60;99.90
26691;DHT22;14307;51.718;8.938;2022-12-20T04:03:37;5.60;99.90
26691;DHT22;14307;51.718;8.938;2022-12-20T04:06:03;5.60;99.90
26691;DHT22;14307;51.718;8.938;2022-12-20T04:08:31;5.60;99.90
26691;DHT22;14307;51.718;8.938;2022-12-20T04:10:57;5.60;99.90
26691;DHT22;14307;51.718;8.938;2022-12-20T04:13:52;5.60;99.90
26691;DHT22;14307;51.718;8.938;2022-12-20T04:16:24;5.70;99.90
26691;DHT22;14307;51.718;8.938;2022-12-20T04:18:53;5.70;99.90
26691;DHT22;14307;51.718;8.938;2022-12-20T04:21:29;5.70;99.90
26691;DHT22;14307;51.718;8.938;2022-12-20T04:23:58;5.60;99.90
26691;DHT22;14307;51.718;8.938;2022-12-20T04:26:33;5.70;99.90
26691;DHT22;14307;51.718;8.938;2022-12-20T04:29:01;5.70;99.90
26691;DHT22;14307;51.718;8.938;2022-12-20T04:31:29;5.70;99.90
26691;DHT22;14307;51.718;8.938;2022-12-20T04:33:55;5.70;99.90
26691;DHT22;14307;51.718;8.938;2022-12-20T04:36:23;5.80;99.90
26691;DHT22;14307;51.718;8.938;2022-12-20T04:38:51;5.80;99.90
26691;DHT22;14307;51.718;8.938;2022-12-20T04:41:19;5.80;99.90
26691;DHT22;14307;51.718;8.938;2022-12-20T04:43:56;5.80;99.90
26691;DHT22;14307;51.718;8.938;2022-12-20T04:46:31;5.80;99.90
26691;DHT22;14307;51.718;8.938;2022-12-20T04:49:00;5.80;99.90
26691;DHT22;14307;51.718;8.938;2022-12-20T04:51:30;5.90;99.90
26691;DHT22;14307;51.718;8.938;2022-12-20T04:53:57;5.80;99.90
26691;DHT22;14307;51.718;8.938;2022-12-20T04:56:44;5.80;99.90
26691;DHT22;14307;51.718;8.938;2022-12-20T04:59:15;5.80;99.90
26691;DHT22;14307;51.718;8.938;2022-12-20T05:01:44;5.80;99.90
26691;DHT22;14307;51.718;8.938;2022-12-20T05:04:15;5.80;99.90
26691;DHT22;14307;51.718;8.938;2022-12-20T05:06:43;5.80;99.90
26691;DHT22;14307;51.718;8.938;2022-12-20T05:09:09;5.80;99.90
26691;DHT22;14307;51.718;8.938;2022-12-20T05:11:37;5.70;99.90
26691;DHT22;14307;51.718;8.938;2022-12-20T05:14:07;5.80;99.90
26691;DHT22;14307;51.718;8.938;2022-12-20T05:16:34;5.80;99.90
26691;DHT22;14307;51.718;8.938;2022-12-20T05:19:00;5.80;99.90
26691;DHT22;14307;51.718;8.938;2022-12-20T05:21:31;5.70;99.90
26691;DHT22;14307;51.718;8.938;2022-12-20T05:24:16;5.80;99.90
26691;DHT22;14307;51.718;8.938;2022-12-20T05:27:22;5.70;99.90
26691;DHT22;14307;51.718;8.938;2022-12-20T05:29:49;5.80;99.90
26691;DHT22;14307;51.718;8.938;2022-12-20T05:32:16;5.70;99.90
26691;DHT22;14307;51.718;8.938;2022-12-20T05:34:43;5.70;99.90
26691;DHT22;14307;51.718;8.938;2022-12-20T05:37:09;5.70;99.90
26691;DHT22;14307;51.718;8.938;2022-12-20T05:39:38;5.80;99.90
26691;DHT22;14307;51.718;8.938;2022-12-20T05:42:10;5.80;99.90
26691;DHT22;14307;51.718;8.938;2022-12-20T05:44:38;5.90;99.90
26691;DHT22;14307;51.718;8.938;2022-12-20T05:47:04;5.90;99.90
26691;DHT22;14307;51.718;8.938;2022-12-20T05:49:34;5.80;99.90
26691;DHT22;14307;51.718;8.938;2022-12-20T05:52:03;5.80;99.90
26691;DHT22;14307;51.718;8.938;2022-12-20T05:54:29;5.80;99.90
26691;DHT22;14307;51.718;8.938;2022-12-20T05:57:12;5.80;99.90
26691;DHT22;14307;51.718;8.938;2022-12-20T05:59:41;5.80;99.90
26691;DHT22;14307;51.718;8.938;2022-12-20T06:02:16;5.80;99.90
26691;DHT22;14307;51.718;8.938;2022-12-20T06:04:45;5.90;99.90
26691;DHT22;14307;51.718;8.938;2022-12-20T06:07:15;5.90;99.90
26691;DHT22;14307;51.718;8.938;2022-12-20T06:09:45;5.80;99.90
26691;DHT22;14307;51.718;8.938;2022-12-20T06:12:15;5.90;99.90
26691;DHT22;14307;51.718;8.938;2022-12-20T06:14:42;5.90;99.90
26691;DHT22;14307;51.718;8.938;2022-12-20T06:17:10;5.90;99.90
26691;DHT22;14307;51.718;8.938;2022-12-20T06:19:37;5.80;99.90
26691;DHT22;14307;51.718;8.938;2022-12-20T06:22:08;5.80;99.90
26691;DHT22;14307;51.718;8.938;2022-12-20T06:24:45;5.80;99.90
26691;DHT22;14307;51.718;8.938;2022-12-20T06:27:17;5.80;99.90
26691;DHT22;14307;51.718;8.938;2022-12-20T06:29:49;5.70;99.90
26691;DHT22;14307;51.718;8.938;2022-12-20T06:32:22;5.80;99.90
26691;DHT22;14307;51.718;8.938;2022-12-20T06:34:50;5.70;99.90
26691;DHT22;14307;51.718;8.938;2022-12-20T06:37:16;5.70;99.90
26691;DHT22;14307;51.718;8.938;2022-12-20T06:39:43;5.70;99.90
26691;DHT22;14307;51.718;8.938;2022-12-20T06:42:10;5.70;99.90
26691;DHT22;14307;51.718;8.938;2022-12-20T06:44:38;5.70;99.90
26691;DHT22;14307;51.718;8.938;2022-12-20T06:47:05;5.80;99.90
26691;DHT22;14307;51.718;8.938;2022-12-20T06:49:31;5.80;99.90
26691;DHT22;14307;51.718;8.938;2022-12-20T06:51:58;5.80;99.90
26691;DHT22;14307;51.718;8.938;2022-12-20T06:54:34;5.80;99.90
26691;DHT22;14307;51.718;8.938;2022-12-20T06:57:01;5.80;99.90
26691;DHT22;14307;51.718;8.938;2022-12-20T06:59:28;5.80;99.90
26691;DHT22;14307;51.718;8.938;2022-12-20T07:01:54;5.80;99.90
26691;DHT22;14307;51.718;8.938;2022-12-20T07:04:21;5.80;99.90
26691;DHT22;14307;51.718;8.938;2022-12-20T07:06:48;5.80;99.90
26691;DHT22;14307;51.718;8.938;2022-12-20T07:09:15;5.80;99.90
26691;DHT22;14307;51.718;8.938;2022-12-20T07:11:42;5.80;99.90
26691;DHT22;14307;51.718;8.938;2022-12-20T07:14:09;5.80;99.90
26691;DHT22;14307;51.718;8.938;2022-12-20T07:16:36;5.80;99.90
26691;DHT22;14307;51.718;8.938;2022-12-20T07:19:03;5.80;99.90
26691;DHT22;14307;51.718;8.938;2022-12-20T07:21:31;5.80;99.90
26691;DHT22;14307;51.718;8.938;2022-12-20T07:23:57;5.90;99.90
26691;DHT22;14307;51.718;8.938;2022-12-20T07:26:24;5.90;99.90
26691;DHT22;14307;51.718;8.938;2022-12-20T07:28:51;5.90;99.90
26691;DHT22;14307;51.718;8.938;2022-12-20T07:31:18;5.90;99.90
26691;DHT22;14307;51.718;8.938;2022-12-20T07:33:44;6.00;99.90
26691;DHT22;14307;51.718;8.938;2022-12-20T07:36:12;6.00;99.90
26691;DHT22;14307;51.718;8.938;2022-12-20T07:38:39;6.10;99.90
26691;DHT22;14307;51.718;8.938;2022-12-20T07:41:10;6.10;99.90
26691;DHT22;14307;51.718;8.938;2022-12-20T07:43:38;6.20;99.90
26691;DHT22;14307;51.718;8.938;2022-12-20T07:46:05;6.20;99.90
26691;DHT22;14307;51.718;8.938;2022-12-20T07:48:33;6.30;99.90
26691;DHT22;14307;51.718;8.938;2022-12-20T07:51:04;6.30;99.90
26691;DHT22;14307;51.718;8.938;2022-12-20T07:53:34;6.40;99.90
26691;DHT22;14307;51.718;8.938;2022-12-20T07:56:03;6.40;99.90
26691;DHT22;14307;51.718;8.938;2022-12-20T07:58:32;6.50;99.90
26691;DHT22;14307;51.718;8.938;2022-12-20T08:01:00;6.40;99.90
26691;DHT22;14307;51.718;8.938;2022-12-20T08:03:39;6.40;99.90
26691;DHT22;14307;51.718;8.938;2022-12-20T08:06:08;6.40;99.90
26691;DHT22;14307;51.718;8.938;2022-12-20T08:08:44;6.50;99.90
26691;DHT22;14307;51.718;8.938;2022-12-20T08:11:13;6.40;99.90
26691;DHT22;14307;51.718;8.938;2022-12-20T08:13:40;6.40;99.90
26691;DHT22;14307;51.718;8.938;2022-12-20T08:16:12;6.40;99.90
26691;DHT22;14307;51.718;8.938;2022-12-20T08:18:39;6.40;99.90
26691;DHT22;14307;51.718;8.938;2022-12-20T08:21:06;6.50;99.90
26691;DHT22;14307;51.718;8.938;2022-12-20T08:23:33;6.50;99.90
26691;DHT22;14307;51.718;8.938;2022-12-20T08:26:00;6.50;99.90
26691;DHT22;14307;51.718;8.938;2022-12-20T08:28:27;6.50;99.90
26691;DHT22;14307;51.718;8.938;2022-12-20T08:31:03;6.50;99.90
26691;DHT22;14307;51.718;8.938;2022-12-20T08:33:31;6.60;99.90
26691;DHT22;14307;51.718;8.938;2022-12-20T08:35:59;6.60;99.90
26691;DHT22;14307;51.718;8.938;2022-12-20T08:38:28;6.60;99.90
26691;DHT22;14307;51.718;8.938;2022-12-20T08:41:09;6.60;99.90
26691;DHT22;14307;51.718;8.938;2022-12-20T08:43:37;6.60;99.90
26691;DHT22;14307;51.718;8.938;2022-12-20T08:46:04;6.60;99.90
26691;DHT22;14307;51.718;8.938;2022-12-20T08:48:32;6.60;99.90
26691;DHT22;14307;51.718;8.938;2022-12-20T08:51:02;6.60;99.90
26691;DHT22;14307;51.718;8.938;2022-12-20T08:53:29;6.70;99.90
26691;DHT22;14307;51.718;8.938;2022-12-20T08:56:22;6.70;99.90
26691;DHT22;14307;51.718;8.938;2022-12-20T08:58:49;6.70;99.90
26691;DHT22;14307;51.718;8.938;2022-12-20T09:01:18;6.70;99.90
26691;DHT22;14307;51.718;8.938;2022-12-20T09:03:46;6.60;99.90
26691;DHT22;14307;51.718;8.938;2022-12-20T09:06:18;6.70;99.90
26691;DHT22;14307;51.718;8.938;2022-12-20T09:08:46;6.70;99.90
26691;DHT22;14307;51.718;8.938;2022-12-20T09:11:16;6.60;99.90
26691;DHT22;14307;51.718;8.938;2022-12-20T09:13:45;6.70;99.90
26691;DHT22;14307;51.718;8.938;2022-12-20T09:16:14;6.70;99.90
26691;DHT22;14307;51.718;8.938;2022-12-20T09:18:42;6.70;99.90
26691;DHT22;14307;51.718;8.938;2022-12-20T09:21:10;6.60;99.90
26691;DHT22;14307;51.718;8.938;2022-12-20T09:23:38;6.60;99.90
26691;DHT22;14307;51.718;8.938;2022-12-20T09:26:08;6.60;99.90
26691;DHT22;14307;51.718;8.938;2022-12-20T09:28:36;6.60;99.90
26691;DHT22;14307;51.718;8.938;2022-12-20T09:31:05;6.60;99.90
26691;DHT22;14307;51.718;8.938;2022-12-20T09:33:33;6.60;99.90
26691;DHT22;14307;51.718;8.938;2022-12-20T09:36:01;6.70;99.90
26691;DHT22;14307;51.718;8.938;2022-12-20T09:38:28;6.70;99.90
26691;DHT22;14307;51.718;8.938;2022-12-20T09:41:02;6.70;99.90
26691;DHT22;14307;51.718;8.938;2022-12-20T09:43:31;6.70;99.90
26691;DHT22;14307;51.718;8.938;2022-12-20T09:46:00;6.70;99.90
26691;DHT22;14307;51.718;8.938;2022-12-20T09:48:36;6.80;99.90
26691;DHT22;14307;51.718;8.938;2022-12-20T09:54:17;7.00;99.90
26691;DHT22;14307;51.718;8.938;2022-12-20T09:59:41;7.00;99.90
26691;DHT22;14307;51.718;8.938;2022-12-20T10:02:22;7.10;99.90
26691;DHT22;14307;51.718;8.938;2022-12-20T10:05:19;7.10;99.90
26691;DHT22;14307;51.718;8.938;2022-12-20T10:08:24;7.10;99.90
26691;DHT22;14307;51.718;8.938;2022-12-20T10:17:04;7.10;99.90
26691;DHT22;14307;51.718;8.938;2022-12-20T10:19:47;7.10;99.90
26691;DHT22;14307;51.718;8.938;2022-12-20T10:22:42;7.10;99.90
26691;DHT22;14307;51.718;8.938;2022-12-20T10:25:23;7.20;99.90
26691;DHT22;14307;51.718;8.938;2022-12-20T10:27:56;7.30;99.90
26691;DHT22;14307;51.718;8.938;2022-12-20T10:30:25;7.30;99.90
26691;DHT22;14307;51.718;8.938;2022-12-20T10:32:55;7.40;99.90
26691;DHT22;14307;51.718;8.938;2022-12-20T10:35:38;7.40;99.90
26691;DHT22;14307;51.718;8.938;2022-12-20T10:38:08;7.40;99.90
26691;DHT22;14307;51.718;8.938;2022-12-20T10:40:40;7.40;99.90
26691;DHT22;14307;51.718;8.938;2022-12-20T10:44:23;7.30;99.90
26691;DHT22;14307;51.718;8.938;2022-12-20T10:46:22;7.40;99.90
26691;DHT22;14307;51.718;8.938;2022-12-20T10:49:26;7.50;99.90
26691;DHT22;14307;51.718;8.938;2022-12-20T10:51:59;7.50;99.90
26691;DHT22;14307;51.718;8.938;2022-12-20T10:54:35;7.60;99.90
26691;DHT22;14307;51.718;8.938;2022-12-20T10:59:43;7.60;99.90
26691;DHT22;14307;51.718;8.938;2022-12-20T11:08:00;7.60;99.90
26691;DHT22;14307;51.718;8.938;2022-12-20T11:11:11;7.60;99.90
26691;DHT22;14307;51.718;8.938;2022-12-20T11:13:39;7.50;99.90
26691;DHT22;14307;51.718;8.938;2022-12-20T11:21:55;7.60;99.90
26691;DHT22;14307;51.718;8.938;2022-12-20T11:24:44;7.70;99.90
26691;DHT22;14307;51.718;8.938;2022-12-20T11:30:22;7.70;99.90
26691;DHT22;14307;51.718;8.938;2022-12-20T11:33:12;7.70;99.90
26691;DHT22;14307;51.718;8.938;2022-12-20T11:35:59;7.80;99.90
26691;DHT22;14307;51.718;8.938;2022-12-20T11:38:41;7.80;99.90
26691;DHT22;14307;51.718;8.938;2022-12-20T11:41:27;7.80;99.90
26691;DHT22;14307;51.718;8.938;2022-12-20T11:44:13;7.90;99.90
26691;DHT22;14307;51.718;8.938;2022-12-20T11:54:47;7.90;99.90
26691;DHT22;14307;51.718;8.938;2022-12-20T11:57:20;7.90;99.90
26691;DHT22;14307;51.718;8.938;2022-12-20T11:59:52;8.00;99.90
26691;DHT22;14307;51.718;8.938;2022-12-20T12:05:38;8.00;99.90
26691;DHT22;14307;51.718;8.938;2022-12-20T12:08:12;8.10;99.90
26691;DHT22;14307;51.718;8.938;2022-12-20T12:11:03;8.20;99.90
26691;DHT22;14307;51.718;8.938;2022-12-20T12:13:34;8.20;99.90
26691;DHT22;14307;51.718;8.938;2022-12-20T12:18:48;8.20;99.90
26691;DHT22;14307;51.718;8.938;2022-12-20T12:21:35;8.20;99.90
26691;DHT22;14307;51.718;8.938;2022-12-20T12:24:24;8.30;99.90
26691;DHT22;14307;51.718;8.938;2022-12-20T12:26:58;8.40;99.90
26691;DHT22;14307;51.718;8.938;2022-12-20T12:29:28;8.40;99.90
26691;DHT22;14307;51.718;8.938;2022-12-20T12:32:05;8.50;99.90
26691;DHT22;14307;51.718;8.938;2022-12-20T12:37:51;8.60;99.90
26691;DHT22;14307;51.718;8.938;2022-12-20T12:40:41;8.60;99.90
26691;DHT22;14307;51.718;8.938;2022-12-20T12:46:18;8.60;99.90
26691;DHT22;14307;51.718;8.938;2022-12-20T12:48:54;8.50;99.90
26691;DHT22;14307;51.718;8.938;2022-12-20T12:51:36;8.50;99.90
26691;DHT22;14307;51.718;8.938;2022-12-20T12:54:17;8.50;99.90
26691;DHT22;14307;51.718;8.938;2022-12-20T12:56:52;8.50;99.90
26691;DHT22;14307;51.718;8.938;2022-12-20T13:10:54;8.40;99.90
26691;DHT22;14307;51.718;8.938;2022-12-20T13:18:00;8.40;99.90
26691;DHT22;14307;51.718;8.938;2022-12-20T13:20:29;8.30;99.90
26691;DHT22;14307;51.718;8.938;2022-12-20T13:25:40;8.30;99.90
26691;DHT22;14307;51.718;8.938;2022-12-20T13:33:45;8.30;99.90
26691;DHT22;14307;51.718;8.938;2022-12-20T13:38:50;8.30;99.90
26691;DHT22;14307;51.718;8.938;2022-12-20T13:49:31;8.30;99.90
26691;DHT22;14307;51.718;8.938;2022-12-20T13:52:27;8.30;99.90
26691;DHT22;14307;51.718;8.938;2022-12-20T13:54:58;8.20;99.90
26691;DHT22;14307;51.718;8.938;2022-12-20T13:59:58;8.20;99.90
26691;DHT22;14307;51.718;8.938;2022-12-20T14:02:40;8.20;99.90
26691;DHT22;14307;51.718;8.938;2022-12-20T14:05:32;8.20;99.90
26691;DHT22;14307;51.718;8.938;2022-12-20T14:08:03;8.20;99.90
26691;DHT22;14307;51.718;8.938;2022-12-20T14:10:32;8.20;99.90
26691;DHT22;14307;51.718;8.938;2022-12-20T14:12:59;8.10;99.90
26691;DHT22;14307;51.718;8.938;2022-12-20T14:15:31;8.10;99.90
26691;DHT22;14307;51.718;8.938;2022-12-20T14:18:24;8.10;99.90
26691;DHT22;14307;51.718;8.938;2022-12-20T14:20:56;8.10;99.90
26691;DHT22;14307;51.718;8.938;2022-12-20T14:23:44;8.10;99.90
26691;DHT22;14307;51.718;8.938;2022-12-20T14:26:23;8.00;99.90
26691;DHT22;14307;51.718;8.938;2022-12-20T14:28:52;8.00;99.90
26691;DHT22;14307;51.718;8.938;2022-12-20T14:34:20;8.00;99.90
26691;DHT22;14307;51.718;8.938;2022-12-20T14:37:32;8.10;99.90
26691;DHT22;14307;51.718;8.938;2022-12-20T14:42:38;8.10;99.90
26691;DHT22;14307;51.718;8.938;2022-12-20T14:47:36;7.90;99.90
26691;DHT22;14307;51.718;8.938;2022-12-20T14:50:12;7.90;99.90
26691;DHT22;14307;51.718;8.938;2022-12-20T14:52:43;8.00;99.90
26691;DHT22;14307;51.718;8.938;2022-12-20T14:55:17;8.10;99.90
26691;DHT22;14307;51.718;8.938;2022-12-20T14:57:50;8.10;99.90
26691;DHT22;14307;51.718;8.938;2022-12-20T15:11:01;8.00;99.90
26691;DHT22;14307;51.718;8.938;2022-12-20T15:13:31;8.10;99.90
26691;DHT22;14307;51.718;8.938;2022-12-20T15:16:03;8.10;99.90
26691;DHT22;14307;51.718;8.938;2022-12-20T15:18:30;8.10;99.90
26691;DHT22;14307;51.718;8.938;2022-12-20T15:21:16;8.10;99.90
26691;DHT22;14307;51.718;8.938;2022-12-20T15:23:47;8.10;99.90
26691;DHT22;14307;51.718;8.938;2022-12-20T15:26:16;8.00;99.90
26691;DHT22;14307;51.718;8.938;2022-12-20T15:28:43;8.00;99.90
26691;DHT22;14307;51.718;8.938;2022-12-20T15:31:11;7.90;99.90
26691;DHT22;14307;51.718;8.938;2022-12-20T15:33:41;7.90;99.90
26691;DHT22;14307;51.718;8.938;2022-12-20T15:36:19;7.80;99.90
26691;DHT22;14307;51.718;8.938;2022-12-20T15:38:47;7.90;99.90
26691;DHT22;14307;51.718;8.938;2022-12-20T15:41:34;7.80;99.90
26691;DHT22;14307;51.718;8.938;2022-12-20T15:44:06;7.80;99.90
26691;DHT22;14307;51.718;8.938;2022-12-20T15:46:36;7.90;99.90
26691;DHT22;14307;51.718;8.938;2022-12-20T15:49:03;7.90;99.90
26691;DHT22;14307;51.718;8.938;2022-12-20T15:51:31;7.80;99.90
26691;DHT22;14307;51.718;8.938;2022-12-20T15:54:00;7.80;99.90
26691;DHT22;14307;51.718;8.938;2022-12-20T15:56:27;7.80;99.90
26691;DHT22;14307;51.718;8.938;2022-12-20T15:58:55;7.80;99.90
26691;DHT22;14307;51.718;8.938;2022-12-20T16:01:34;7.80;99.90
26691;DHT22;14307;51.718;8.938;2022-12-20T16:04:07;7.90;99.90
26691;DHT22;14307;51.718;8.938;2022-12-20T16:06:38;7.90;99.90
26691;DHT22;14307;51.718;8.938;2022-12-20T16:09:05;7.80;99.90
26691;DHT22;14307;51.718;8.938;2022-12-20T16:11:31;7.80;99.90
26691;DHT22;14307;51.718;8.938;2022-12-20T16:13:58;7.80;99.90
26691;DHT22;14307;51.718;8.938;2022-12-20T16:16:28;7.80;99.90
26691;DHT22;14307;51.718;8.938;2022-12-20T16:18:55;7.80;99.90
26691;DHT22;14307;51.718;8.938;2022-12-20T16:21:32;7.80;99.90
26691;DHT22;14307;51.718;8.938;2022-12-20T16:23:59;7.80;99.90
26691;DHT22;14307;51.718;8.938;2022-12-20T16:26:27;7.80;99.90
26691;DHT22;14307;51.718;8.938;2022-12-20T16:28:55;7.70;99.90
26691;DHT22;14307;51.718;8.938;2022-12-20T16:31:28;7.70;99.90
26691;DHT22;14307;51.718;8.938;2022-12-20T16:33:58;7.80;99.90
26691;DHT22;14307;51.718;8.938;2022-12-20T16:36:25;7.70;99.90
26691;DHT22;14307;51.718;8.938;2022-12-20T16:38:52;7.60;99.90
26691;DHT22;14307;51.718;8.938;2022-12-20T16:41:24;7.60;99.90
26691;DHT22;14307;51.718;8.938;2022-12-20T16:43:54;7.60;99.90
26691;DHT22;14307;51.718;8.938;2022-12-20T16:46:24;7.60;99.90
26691;DHT22;14307;51.718;8.938;2022-12-20T16:48:55;7.50;99.90
26691;DHT22;14307;51.718;8.938;2022-12-20T16:51:34;7.50;99.90
26691;DHT22;14307;51.718;8.938;2022-12-20T16:54:12;7.40;99.90
26691;DHT22;14307;51.718;8.938;2022-12-20T16:56:51;7.40;99.90
26691;DHT22;14307;51.718;8.938;2022-12-20T16:59:24;7.30;99.90
26691;DHT22;14307;51.718;8.938;2022-12-20T17:01:53;7.30;99.90
26691;DHT22;14307;51.718;8.938;2022-12-20T17:04:21;7.30;99.90
26691;DHT22;14307;51.718;8.938;2022-12-20T17:06:48;7.30;99.90
26691;DHT22;14307;51.718;8.938;2022-12-20T17:09:15;7.30;99.90
26691;DHT22;14307;51.718;8.938;2022-12-20T17:11:42;7.20;99.90
26691;DHT22;14307;51.718;8.938;2022-12-20T17:14:11;7.10;99.90
26691;DHT22;14307;51.718;8.938;2022-12-20T17:16:39;7.10;99.90
26691;DHT22;14307;51.718;8.938;2022-12-20T17:19:08;7.10;99.90
26691;DHT22;14307;51.718;8.938;2022-12-20T17:21:44;7.10;99.90
26691;DHT22;14307;51.718;8.938;2022-12-20T17:24:29;7.00;99.90
26691;DHT22;14307;51.718;8.938;2022-12-20T17:26:56;7.00;99.90
26691;DHT22;14307;51.718;8.938;2022-12-20T17:29:22;7.00;99.90
26691;DHT22;14307;51.718;8.938;2022-12-20T17:31:49;7.00;99.90
26691;DHT22;14307;51.718;8.938;2022-12-20T17:34:17;7.00;99.90
26691;DHT22;14307;51.718;8.938;2022-12-20T17:36:45;7.00;99.90
26691;DHT22;14307;51.718;8.938;2022-12-20T17:39:11;7.00;99.90
26691;DHT22;14307;51.718;8.938;2022-12-20T17:41:38;7.00;99.90
26691;DHT22;14307;51.718;8.938;2022-12-20T17:44:05;7.00;99.90
26691;DHT22;14307;51.718;8.938;2022-12-20T17:46:32;7.10;99.90
26691;DHT22;14307;51.718;8.938;2022-12-20T17:48:59;7.00;99.90
26691;DHT22;14307;51.718;8.938;2022-12-20T17:51:27;7.20;99.90
26691;DHT22;14307;51.718;8.938;2022-12-20T17:53:58;7.20;99.90
26691;DHT22;14307;51.718;8.938;2022-12-20T17:56:32;7.20;99.90
26691;DHT22;14307;51.718;8.938;2022-12-20T17:59:00;7.20;99.90
26691;DHT22;14307;51.718;8.938;2022-12-20T18:01:30;7.20;99.90
26691;DHT22;14307;51.718;8.938;2022-12-20T18:03:59;7.20;99.90
26691;DHT22;14307;51.718;8.938;2022-12-20T18:06:32;7.20;99.90
26691;DHT22;14307;51.718;8.938;2022-12-20T18:08:59;7.20;99.90
26691;DHT22;14307;51.718;8.938;2022-12-20T18:11:27;7.20;99.90
26691;DHT22;14307;51.718;8.938;2022-12-20T18:13:56;7.20;99.90
26691;DHT22;14307;51.718;8.938;2022-12-20T18:16:28;7.20;99.90